Time;durP1;ratioP1;P1;durP2;ratioP2;P2;SDS_P1;SDS_P2;PMS_P1;PMS_P2;Temp;Humidity;BMP_temperature;BMP_pressure;BME280_temperature;BME280_humidity;BME280_pressure;Samples;Min_cycle;Max_cycle;Signal;HPM_P1;HPM_P2
2022/10/14 00:09:13;;;;;;;2.05;1.30;;;20.00;49.90;;;;;;20630738;28;20034;-74
2022/10/14 00:19:14;;;;;;;2.40;1.42;;;20.00;50.00;;;;;;20658958;28;20404;-75
2022/10/14 00:29:17;;;;;;;2.85;1.90;;;20.00;50.00;;;;;;20631688;28;20120;-74
2022/10/14 00:39:18;;;;;;;1.63;1.30;;;20.00;50.10;;;;;;20628973;28;20031;-73
2022/10/14 00:49:22;;;;;;;1.75;1.42;;;19.90;50.20;;;;;;20580600;28;20023;-74
2022/10/14 00:59:23;;;;;;;3.05;1.63;;;19.90;50.30;;;;;;20566518;28;20529;-73
2022/10/14 01:09:24;;;;;;;2.97;1.75;;;19.90;50.30;;;;;;20550669;28;20073;-74
2022/10/14 01:19:57;;;;;;;2.17;1.60;;;19.90;50.50;;;;;;20596933;28;20038;-74
2022/10/14 01:30:11;;;;;;;2.50;1.65;;;19.80;50.50;;;;;;20620677;28;20050;-73
2022/10/14 01:40:22;;;;;;;2.25;1.45;;;19.80;50.60;;;;;;20657971;28;20057;-74
2022/10/14 02:00:47;;;;;;;4.10;2.60;;;19.80;50.70;;;;;;20859585;23;20043;-79
2022/10/14 02:11:01;;;;;;;3.28;1.95;;;19.80;50.80;;;;;;20665889;28;20034;-83
2022/10/14 02:21:16;;;;;;;1.67;1.40;;;19.70;50.80;;;;;;20648916;28;20039;-80
2022/10/14 02:31:19;;;;;;;2.70;1.57;;;19.70;51.00;;;;;;20649537;28;20030;-80
2022/10/14 02:41:22;;;;;;;3.28;1.70;;;19.70;51.00;;;;;;20616890;28;20049;-80
2022/10/14 02:51:23;;;;;;;3.78;1.75;;;19.70;51.10;;;;;;20641445;28;20072;-80
2022/10/14 03:01:23;;;;;;;2.88;1.50;;;19.70;51.20;;;;;;20662401;28;20428;-80
2022/10/14 03:11:24;;;;;;;3.22;1.90;;;19.70;51.30;;;;;;20645555;28;20046;-80
2022/10/14 03:21:28;;;;;;;2.50;1.80;;;19.70;51.30;;;;;;20660023;28;20085;-75
2022/10/14 03:31:28;;;;;;;2.55;1.40;;;19.60;51.40;;;;;;20639175;28;20038;-80
2022/10/14 03:41:43;;;;;;;3.00;1.55;;;19.60;51.40;;;;;;20638782;28;20042;-75
2022/10/14 03:51:46;;;;;;;3.33;1.92;;;19.60;51.50;;;;;;20623312;28;20430;-79
2022/10/14 04:01:54;;;;;;;4.25;2.00;;;19.60;51.60;;;;;;20627061;28;20031;-78
2022/10/14 04:11:58;;;;;;;2.92;1.67;;;19.50;51.60;;;;;;20657913;28;20031;-78
2022/10/14 04:22:12;;;;;;;2.28;1.70;;;19.50;51.70;;;;;;20642442;28;20054;-76
2022/10/14 04:32:13;;;;;;;2.85;1.70;;;19.50;51.80;;;;;;20652138;28;20034;-80
2022/10/14 04:42:14;;;;;;;3.15;1.92;;;19.40;52.50;;;;;;20630891;28;20125;-83
2022/10/14 04:52:18;;;;;;;4.07;1.77;;;19.50;51.90;;;;;;20638427;28;20030;-76
2022/10/14 05:02:31;;;;;;;4.47;1.70;;;19.50;52.00;;;;;;20649372;28;20139;-80
2022/10/14 05:12:34;;;;;;;4.57;2.08;;;19.40;52.10;;;;;;20616200;28;20041;-73
2022/10/14 05:22:37;;;;;;;6.53;2.20;;;19.40;52.20;;;;;;20629613;28;20058;-77
2022/10/14 05:32:38;;;;;;;3.25;2.00;;;19.40;52.70;;;;;;20628380;28;20038;-73
2022/10/14 05:42:42;;;;;;;2.95;2.08;;;19.40;52.30;;;;;;20613041;28;20042;-75
2022/10/14 05:52:43;;;;;;;3.05;1.85;;;19.40;52.40;;;;;;20611177;28;20034;-74
2022/10/14 06:02:51;;;;;;;3.30;1.73;;;19.30;52.40;;;;;;20616877;28;20038;-74
2022/10/14 06:12:53;;;;;;;2.65;1.77;;;19.30;52.50;;;;;;20642376;28;20069;-75
2022/10/14 06:22:54;;;;;;;2.88;1.80;;;19.30;52.50;;;;;;20631184;28;20645;-75
2022/10/14 06:32:55;;;;;;;2.97;2.00;;;19.30;52.60;;;;;;20674005;28;20173;-74
2022/10/14 06:42:57;;;;;;;3.90;2.20;;;19.30;52.70;;;;;;20656878;28;20068;-73
2022/10/14 06:52:58;;;;;;;3.15;2.00;;;19.30;52.80;;;;;;20671806;28;20081;-75
2022/10/14 07:02:58;;;;;;;3.03;1.95;;;19.30;52.80;;;;;;20671651;28;20440;-76
2022/10/14 07:12:59;;;;;;;3.60;2.50;;;19.20;52.90;;;;;;20654743;28;20038;-75
2022/10/14 07:23:00;;;;;;;2.63;1.85;;;19.20;52.90;;;;;;20662652;28;20038;-75
2022/10/14 07:33:00;;;;;;;2.47;1.55;;;19.20;53.00;;;;;;20653000;28;20034;-75
2022/10/14 07:43:01;;;;;;;2.17;1.47;;;19.20;53.00;;;;;;20652002;28;20034;-75
2022/10/14 07:53:02;;;;;;;4.63;1.92;;;19.20;53.00;;;;;;20618140;28;20320;-75
2022/10/14 08:03:03;;;;;;;4.20;2.10;;;19.20;53.00;;;;;;20698907;28;20145;-76
2022/10/14 08:13:03;;;;;;;3.45;2.22;;;19.20;53.10;;;;;;20650126;28;20022;-76
2022/10/14 08:23:04;;;;;;;3.78;2.35;;;19.10;53.10;;;;;;20648729;28;20439;-75
2022/10/14 08:33:05;;;;;;;2.93;1.83;;;19.10;53.30;;;;;;20632151;28;20436;-75
2022/10/14 08:43:13;;;;;;;3.17;2.33;;;19.10;53.40;;;;;;20630040;28;20308;-76
2022/10/14 08:53:20;;;;;;;3.50;1.98;;;19.10;53.50;;;;;;20647033;28;20065;-73
2022/10/14 09:03:32;;;;;;;2.88;1.73;;;19.20;53.50;;;;;;20663230;28;20050;-74
2022/10/14 09:13:40;;;;;;;4.07;1.85;;;19.10;53.40;;;;;;20629799;28;20192;-74
2022/10/14 09:23:40;;;;;;;2.47;1.90;;;19.10;53.40;;;;;;20613371;28;20049;-74
2022/10/14 09:33:41;;;;;;;3.10;2.03;;;19.10;53.40;;;;;;20611808;28;20034;-74
2022/10/14 09:44:13;;;;;;;2.97;1.98;;;19.10;53.40;;;;;;20643260;28;20034;-74
2022/10/14 09:54:25;;;;;;;3.15;2.00;;;19.10;53.30;;;;;;20642942;28;20034;-74
2022/10/14 10:04:35;;;;;;;2.20;1.70;;;19.20;53.20;;;;;;20654442;28;20034;-75
2022/10/14 10:14:36;;;;;;;3.38;1.65;;;19.20;53.10;;;;;;20638022;28;20481;-76
2022/10/14 10:24:37;;;;;;;3.20;1.98;;;19.30;53.10;;;;;;20604639;28;20046;-78
2022/10/14 10:34:50;;;;;;;3.70;1.33;;;19.40;52.90;;;;;;20626787;28;20038;-77
2022/10/14 10:45:14;;;;;;;2.50;1.42;;;19.50;52.70;;;;;;20637061;28;20045;-79
2022/10/14 10:55:34;;;;;;;1.95;1.52;;;19.50;52.50;;;;;;20662987;28;20030;-77
2022/10/14 11:05:52;;;;;;;3.33;1.98;;;19.70;52.40;;;;;;20644474;28;20129;-77
2022/10/14 11:15:56;;;;;;;2.22;1.60;;;19.70;52.20;;;;;;20592134;28;20027;-75
2022/10/14 11:26:02;;;;;;;3.33;1.93;;;19.70;52.10;;;;;;20648943;28;20034;-76
2022/10/14 11:36:53;;;;;;;2.08;1.42;;;19.80;52.00;;;;;;20653527;28;20384;-72
2022/10/14 11:46:57;;;;;;;2.00;1.25;;;19.80;51.90;;;;;;20672335;28;20050;-76
2022/10/14 11:57:05;;;;;;;3.00;1.67;;;19.80;51.90;;;;;;20641562;28;20507;-74
2022/10/14 12:07:16;;;;;;;1.95;1.33;;;19.90;51.90;;;;;;20641515;28;20034;-74
2022/10/14 12:17:49;;;;;;;2.15;1.45;;;19.90;51.80;;;;;;20665994;28;20500;-74
2022/10/14 12:27:51;;;;;;;2.53;1.58;;;19.90;51.80;;;;;;20728108;28;20061;-73
2022/10/14 12:37:53;;;;;;;1.83;1.40;;;19.90;51.70;;;;;;20615359;28;20034;-77
2022/10/14 12:48:13;;;;;;;1.63;1.25;;;20.00;51.80;;;;;;20622415;28;20099;-75
2022/10/14 12:58:38;;;;;;;2.50;1.15;;;20.00;51.80;;;;;;20646724;28;20125;-76
2022/10/14 13:08:38;;;;;;;1.48;1.08;;;20.00;51.70;;;;;;20646919;28;20052;-74
2022/10/14 13:18:42;;;;;;;2.13;1.40;;;20.00;51.60;;;;;;20627840;28;20034;-75
2022/10/14 13:28:46;;;;;;;1.52;1.30;;;20.10;51.60;;;;;;20659818;28;20050;-74
2022/10/14 13:38:56;;;;;;;2.13;1.33;;;20.10;51.60;;;;;;20562784;28;20031;-75
2022/10/14 13:49:00;;;;;;;2.47;1.73;;;20.20;51.50;;;;;;20561998;28;20038;-74
2022/10/14 13:59:01;;;;;;;1.73;1.20;;;20.20;51.50;;;;;;20620202;28;20045;-76
2022/10/14 14:09:04;;;;;;;1.70;1.10;;;20.20;51.50;;;;;;20620444;28;20043;-75
2022/10/14 14:19:04;;;;;;;1.58;1.08;;;20.20;51.40;;;;;;20610066;28;20374;-76
2022/10/14 14:29:16;;;;;;;1.42;1.00;;;20.20;51.40;;;;;;20624625;28;20042;-75
2022/10/14 14:39:27;;;;;;;1.88;1.30;;;20.20;51.50;;;;;;20610367;28;20034;-75
2022/10/14 14:49:32;;;;;;;2.10;1.23;;;20.10;51.40;;;;;;20656281;28;20118;-74
2022/10/14 14:59:39;;;;;;;12.80;1.88;;;20.10;51.40;;;;;;20624732;28;20042;-73
2022/10/14 15:09:55;;;;;;;12.90;2.58;;;20.20;51.50;;;;;;20661718;28;20030;-77
2022/10/14 15:20:19;;;;;;;6.95;1.30;;;20.30;51.70;;;;;;20629751;28;20133;-78
2022/10/14 15:30:33;;;;;;;3.83;1.38;;;20.30;51.70;;;;;;20704821;28;20045;-75
2022/10/14 15:40:35;;;;;;;5.72;1.30;;;20.40;51.80;;;;;;20649576;28;20108;-75
2022/10/14 15:50:38;;;;;;;9.52;1.45;;;20.40;52.10;;;;;;20679549;28;20038;-77
2022/10/14 16:00:44;;;;;;;15.15;1.40;;;20.40;52.30;;;;;;20654901;28;20077;-78
2022/10/14 16:10:46;;;;;;;6.72;1.02;;;20.40;52.30;;;;;;20643254;28;20400;-75
2022/10/14 16:20:46;;;;;;;3.40;1.00;;;20.30;52.30;;;;;;20619524;28;20108;-75
2022/10/14 16:30:48;;;;;;;1.93;1.13;;;20.30;52.60;;;;;;20629398;28;20030;-75
2022/10/14 16:40:56;;;;;;;2.88;0.88;;;20.30;52.60;;;;;;20647711;28;20298;-75
2022/10/14 16:50:58;;;;;;;1.52;0.82;;;20.30;52.50;;;;;;20631412;28;20081;-73
2022/10/14 17:01:03;;;;;;;2.75;1.17;;;20.20;52.40;;;;;;20678409;28;20096;-78
2022/10/14 17:11:05;;;;;;;1.48;0.70;;;20.20;52.40;;;;;;20645394;28;20029;-75
2022/10/14 17:21:07;;;;;;;0.75;0.55;;;20.20;52.40;;;;;;20570173;28;20038;-76
2022/10/14 17:31:16;;;;;;;2.80;0.80;;;20.20;52.40;;;;;;20632295;28;20037;-79
2022/10/14 17:41:17;;;;;;;1.95;0.73;;;20.10;52.50;;;;;;20647384;28;20057;-80
2022/10/14 17:51:21;;;;;;;0.50;0.50;;;20.10;52.50;;;;;;20628437;28;20133;-79
2022/10/14 18:01:24;;;;;;;0.80;0.40;;;20.10;52.50;;;;;;20661798;28;20042;-80
2022/10/14 18:11:25;;;;;;;1.48;0.80;;;20.10;52.60;;;;;;20606626;28;20108;-80
2022/10/14 18:21:29;;;;;;;0.80;0.70;;;20.10;52.60;;;;;;20680261;28;20042;-79
2022/10/14 18:31:31;;;;;;;2.95;0.63;;;20.10;52.60;;;;;;20689324;28;20087;-79
2022/10/14 18:41:32;;;;;;;1.40;0.60;;;20.10;52.60;;;;;;20656726;28;20046;-79
2022/10/14 18:51:34;;;;;;;0.57;0.50;;;20.10;52.60;;;;;;20645893;28;20141;-79
2022/10/14 19:01:36;;;;;;;1.45;0.60;;;20.00;52.70;;;;;;20641559;28;20038;-79
2022/10/14 19:11:38;;;;;;;1.30;0.68;;;20.00;52.70;;;;;;20671425;28;20026;-81
2022/10/14 19:21:39;;;;;;;1.60;0.70;;;20.00;52.80;;;;;;20660322;28;20097;-81
2022/10/14 19:31:39;;;;;;;2.83;0.70;;;20.10;53.00;;;;;;20675122;28;20030;-83
2022/10/14 19:41:45;;;;;;;1.50;0.50;;;19.90;53.00;;;;;;20642021;28;20659;-82
2022/10/14 19:51:47;;;;;;;1.15;0.52;;;19.90;53.10;;;;;;20653250;28;20042;-82
2022/10/14 20:01:48;;;;;;;1.35;1.17;;;19.90;53.10;;;;;;20636210;28;20041;-81
2022/10/14 20:11:49;;;;;;;2.30;0.60;;;19.80;53.10;;;;;;20638759;28;20077;-82
2022/10/14 20:21:52;;;;;;;0.60;0.60;;;19.90;53.30;;;;;;20638726;28;20096;-80
2022/10/14 20:31:53;;;;;;;0.40;0.38;;;19.80;53.20;;;;;;20622785;28;20034;-81
2022/10/14 20:42:00;;;;;;;0.55;0.55;;;19.80;53.30;;;;;;20638148;28;20062;-81
2022/10/14 20:52:01;;;;;;;1.10;0.60;;;19.80;53.40;;;;;;20573864;28;20035;-81
2022/10/14 21:02:02;;;;;;;2.90;0.73;;;19.80;53.40;;;;;;20556965;28;20039;-82
2022/10/14 21:12:03;;;;;;;1.00;0.70;;;19.70;53.40;;;;;;20599762;28;20052;-82
2022/10/14 21:22:05;;;;;;;1.38;0.50;;;19.70;53.40;;;;;;20651180;28;20034;-81
2022/10/14 21:32:06;;;;;;;0.68;0.50;;;19.70;53.50;;;;;;20634597;28;20030;-81
2022/10/14 21:42:07;;;;;;;0.83;0.53;;;19.70;53.50;;;;;;20617520;28;20125;-83
2022/10/14 21:52:07;;;;;;;1.00;0.55;;;19.70;53.60;;;;;;20648879;28;20308;-82
2022/10/14 22:02:09;;;;;;;0.80;0.60;;;19.70;53.60;;;;;;20633801;28;20064;-81
2022/10/14 22:12:11;;;;;;;0.35;0.35;;;19.70;53.70;;;;;;20648137;28;20027;-80
2022/10/14 22:22:12;;;;;;;1.27;0.63;;;19.70;53.80;;;;;;20632222;28;20158;-82
2022/10/14 22:32:14;;;;;;;0.63;0.50;;;19.60;53.70;;;;;;20648280;28;20053;-82
2022/10/14 22:42:14;;;;;;;0.77;0.60;;;19.60;53.80;;;;;;20647313;28;20038;-84
2022/10/14 22:52:18;;;;;;;1.10;0.60;;;19.60;53.80;;;;;;20647818;28;20088;-82
2022/10/14 23:02:18;;;;;;;0.88;0.60;;;19.60;53.90;;;;;;20648502;28;20301;-81
2022/10/14 23:12:19;;;;;;;1.02;0.65;;;19.60;54.00;;;;;;20643342;28;20173;-81
2022/10/14 23:22:21;;;;;;;0.85;0.73;;;19.60;54.00;;;;;;20644543;28;20048;-83
2022/10/14 23:32:21;;;;;;;0.68;0.50;;;19.60;54.00;;;;;;20661423;28;20030;-81
2022/10/14 23:42:22;;;;;;;0.60;0.40;;;19.60;54.10;;;;;;20643045;28;20041;-82
2022/10/14 23:52:23;;;;;;;1.00;0.60;;;19.60;54.20;;;;;;20626670;28;20050;-81
